createdAt,value
2023-08-29T00:01:38.005Z,4.97
2023-08-29T00:04:04.958Z,5.35
2023-08-29T00:06:31.653Z,4.35
2023-08-29T00:08:58.293Z,6.47
2023-08-29T00:11:24.955Z,4.57
2023-08-29T00:13:53.686Z,4.95
2023-08-29T00:16:20.502Z,4.47
2023-08-29T00:18:47.179Z,3.45
2023-08-29T00:21:13.770Z,3.88
2023-08-29T00:23:40.391Z,3.90
2023-08-29T00:26:07.111Z,3.90
2023-08-29T00:28:33.712Z,4.13
2023-08-29T00:31:00.420Z,4.68
2023-08-29T00:33:27.066Z,4.65
2023-08-29T00:35:53.668Z,3.65
2023-08-29T00:38:20.410Z,4.80
2023-08-29T00:40:47.039Z,3.10
2023-08-29T00:43:14.914Z,6.55
2023-08-29T00:45:41.848Z,4.80
2023-08-29T00:48:09.832Z,4.75
2023-08-29T00:50:37.194Z,4.20
2023-08-29T00:53:07.038Z,4.00
2023-08-29T00:55:35.959Z,4.35
2023-08-29T00:58:03.793Z,4.95
2023-08-29T01:00:32.284Z,4.35
2023-08-29T01:03:01.105Z,3.67
2023-08-29T01:05:29.713Z,3.65
2023-08-29T01:08:01.057Z,3.80
2023-08-29T01:10:46.926Z,5.15
2023-08-29T01:13:40.656Z,6.40
2023-08-29T01:16:11.355Z,7.03
2023-08-29T01:18:39.232Z,7.38
2023-08-29T01:21:30.466Z,5.75
2023-08-29T01:24:16.776Z,5.13
2023-08-29T01:26:45.288Z,5.95
2023-08-29T01:29:12.301Z,4.28
2023-08-29T01:31:39.215Z,5.07
2023-08-29T01:34:06.361Z,5.45
2023-08-29T01:39:09.278Z,5.68
2023-08-29T01:41:36.062Z,5.72
2023-08-29T01:44:03.903Z,5.20
2023-08-29T01:46:31.169Z,4.78
2023-08-29T01:49:00.081Z,6.65
2023-08-29T01:51:26.651Z,4.75
2023-08-29T01:53:53.781Z,5.43
2023-08-29T01:56:24.064Z,5.15
2023-08-29T02:01:23.558Z,6.55
2023-08-29T02:03:51.024Z,5.47
2023-08-29T02:06:19.154Z,3.80
2023-08-29T02:08:45.971Z,5.72
2023-08-29T02:11:12.720Z,3.72
2023-08-29T02:13:39.404Z,4.75
2023-08-29T02:16:05.995Z,6.75
2023-08-29T02:18:32.652Z,4.25
2023-08-29T02:20:59.214Z,5.80
2023-08-29T02:23:27.562Z,4.18
2023-08-29T02:26:07.023Z,4.00
2023-08-29T02:31:14.638Z,4.65
2023-08-29T02:33:41.512Z,5.40
2023-08-29T02:36:08.287Z,7.70
2023-08-29T02:38:35.680Z,8.20
2023-08-29T02:41:02.643Z,4.93
2023-08-29T02:43:29.509Z,4.97
2023-08-29T02:45:56.395Z,6.30
2023-08-29T02:48:23.293Z,5.95
2023-08-29T02:50:50.174Z,6.90
2023-08-29T02:53:21.892Z,11.48
2023-08-29T02:55:53.197Z,7.93
2023-08-29T02:58:20.607Z,6.50
2023-08-29T03:00:48.888Z,9.77
2023-08-29T03:03:17.059Z,6.80
2023-08-29T03:05:43.929Z,8.80
2023-08-29T03:08:11.639Z,9.82
2023-08-29T03:10:39.412Z,8.48
2023-08-29T03:13:06.576Z,6.60
2023-08-29T03:15:34.227Z,9.13
2023-08-29T03:18:02.322Z,8.82
2023-08-29T03:20:30.082Z,11.85
2023-08-29T03:22:56.678Z,8.82
2023-08-29T03:25:23.567Z,11.05
2023-08-29T03:27:50.813Z,8.38
2023-08-29T03:30:17.827Z,7.97
2023-08-29T03:32:44.803Z,9.45
2023-08-29T03:35:15.256Z,8.63
2023-08-29T03:37:42.861Z,11.27
2023-08-29T03:40:13.844Z,9.88
2023-08-29T03:42:40.932Z,8.75
2023-08-29T03:45:09.269Z,8.55
2023-08-29T03:47:38.677Z,7.75
2023-08-29T03:52:33.679Z,8.65
2023-08-29T03:55:00.561Z,10.55
2023-08-29T03:57:27.876Z,10.30
2023-08-29T03:59:54.619Z,9.02
2023-08-29T04:02:21.285Z,10.68
2023-08-29T04:04:52.727Z,9.40
2023-08-29T04:07:20.409Z,8.52
2023-08-29T04:09:47.212Z,14.55
2023-08-29T04:12:13.841Z,12.43
2023-08-29T04:14:40.572Z,9.35
2023-08-29T04:17:07.280Z,11.43
2023-08-29T04:19:34.747Z,12.50
2023-08-29T04:22:02.001Z,10.23
2023-08-29T04:24:29.697Z,8.95
2023-08-29T04:26:56.415Z,9.07
2023-08-29T04:29:24.085Z,13.85
2023-08-29T04:31:50.732Z,12.13
2023-08-29T04:34:17.357Z,10.52
2023-08-29T04:36:44.017Z,9.95
2023-08-29T04:39:10.621Z,10.10
2023-08-29T04:41:37.288Z,15.68
2023-08-29T04:44:04.039Z,13.40
2023-08-29T04:46:30.629Z,16.25
2023-08-29T04:48:57.576Z,11.57
2023-08-29T04:51:24.253Z,13.30
2023-08-29T04:53:50.980Z,9.85
2023-08-29T04:56:17.661Z,9.13
2023-08-29T04:58:44.272Z,13.38
2023-08-29T05:01:11.537Z,9.50
2023-08-29T05:03:38.460Z,12.85
2023-08-29T05:06:05.759Z,11.18
2023-08-29T05:08:36.085Z,11.95
2023-08-29T05:11:04.488Z,10.50
2023-08-29T05:13:31.143Z,9.85
2023-08-29T05:15:58.601Z,11.18
2023-08-29T05:18:28.949Z,12.57
2023-08-29T05:20:58.233Z,10.10
2023-08-29T05:23:25.070Z,11.23
2023-08-29T05:25:51.678Z,12.73
2023-08-29T05:28:18.278Z,12.73
2023-08-29T05:30:45.359Z,14.02
2023-08-29T05:33:13.296Z,12.55
2023-08-29T05:35:40.012Z,12.02
2023-08-29T05:38:06.896Z,12.32
2023-08-29T05:40:34.615Z,12.50
2023-08-29T05:43:01.436Z,16.80
2023-08-29T05:45:28.035Z,16.00
2023-08-29T05:47:54.672Z,10.10
2023-08-29T05:50:21.265Z,12.38
2023-08-29T05:52:47.934Z,11.68
2023-08-29T05:55:14.584Z,9.95
2023-08-29T05:57:41.197Z,11.30
2023-08-29T06:00:13.742Z,11.57
2023-08-29T06:02:43.158Z,14.48
2023-08-29T06:05:10.581Z,13.52
2023-08-29T06:07:40.031Z,13.95
2023-08-29T06:10:10.229Z,14.88
2023-08-29T06:12:36.896Z,12.52
2023-08-29T06:15:03.709Z,11.75
2023-08-29T06:17:30.259Z,13.32
2023-08-29T06:19:57.256Z,12.35
2023-08-29T06:22:23.889Z,15.23
2023-08-29T06:24:50.820Z,11.38
2023-08-29T06:27:17.409Z,14.80
2023-08-29T06:29:44.058Z,12.20
2023-08-29T06:32:24.145Z,10.85
2023-08-29T06:34:54.671Z,11.85
2023-08-29T06:37:21.355Z,12.90
2023-08-29T06:39:47.992Z,11.25
2023-08-29T06:42:14.573Z,12.80
2023-08-29T06:44:41.251Z,12.07
2023-08-29T06:47:08.042Z,12.48
2023-08-29T06:49:47.814Z,11.35
2023-08-29T06:52:33.326Z,14.48
2023-08-29T06:57:27.463Z,13.55
2023-08-29T06:59:54.083Z,10.07
2023-08-29T07:02:20.694Z,12.27
2023-08-29T07:04:47.743Z,13.48
2023-08-29T07:07:14.378Z,13.63
2023-08-29T07:09:41.121Z,10.05
2023-08-29T07:12:07.973Z,9.23
2023-08-29T07:14:34.628Z,8.57
2023-08-29T07:17:10.203Z,7.75
2023-08-29T07:19:37.646Z,9.57
2023-08-29T07:22:21.216Z,7.60
2023-08-29T07:24:49.876Z,7.88
2023-08-29T07:27:16.500Z,9.25
2023-08-29T07:29:43.205Z,10.82
2023-08-29T07:32:09.782Z,9.57
2023-08-29T07:34:36.455Z,11.60
2023-08-29T07:37:03.909Z,8.55
2023-08-29T07:39:30.480Z,8.68
2023-08-29T07:41:57.075Z,6.75
2023-08-29T07:44:23.721Z,8.63
2023-08-29T07:47:07.814Z,11.23
2023-08-29T07:49:37.159Z,8.60
2023-08-29T07:52:04.376Z,8.10
2023-08-29T07:54:31.228Z,7.40
2023-08-29T07:56:57.841Z,7.20
2023-08-29T07:59:25.632Z,6.78
2023-08-29T08:01:53.276Z,11.32
2023-08-29T08:04:20.169Z,8.27
2023-08-29T08:06:46.852Z,6.63
2023-08-29T08:09:14.111Z,7.07
2023-08-29T08:11:40.796Z,6.68
2023-08-29T08:14:07.376Z,8.55
2023-08-29T08:16:34.098Z,5.97
2023-08-29T08:19:00.716Z,9.43
2023-08-29T08:21:27.395Z,5.97
2023-08-29T08:23:53.972Z,6.18
2023-08-29T08:26:20.645Z,3.83
2023-08-29T08:28:47.426Z,5.10
2023-08-29T08:31:14.149Z,7.45
2023-08-29T08:33:42.287Z,4.70
2023-08-29T08:36:09.120Z,12.93
2023-08-29T08:38:35.795Z,6.10
2023-08-29T08:41:04.661Z,4.25
2023-08-29T08:43:32.763Z,5.38
2023-08-29T08:46:00.240Z,3.13
2023-08-29T08:48:27.858Z,5.97
2023-08-29T08:51:10.702Z,3.22
2023-08-29T08:53:42.374Z,6.03
2023-08-29T08:56:09.690Z,5.35
2023-08-29T08:58:38.373Z,5.53
2023-08-29T09:01:05.530Z,5.27
2023-08-29T09:03:32.399Z,5.63
2023-08-29T09:05:59.079Z,7.07
2023-08-29T09:08:25.977Z,6.57
2023-08-29T09:10:54.349Z,7.30
2023-08-29T09:13:21.698Z,5.93
2023-08-29T09:15:48.644Z,7.05
2023-08-29T09:18:24.693Z,4.07
2023-08-29T09:20:55.617Z,6.50
2023-08-29T09:23:24.094Z,3.33
2023-08-29T09:25:57.979Z,6.15
2023-08-29T09:28:28.976Z,4.22
2023-08-29T09:30:56.781Z,5.53
2023-08-29T09:33:23.613Z,4.78
2023-08-29T09:35:50.873Z,6.65
2023-08-29T09:38:20.446Z,7.63
2023-08-29T09:40:51.594Z,4.50
2023-08-29T09:43:18.756Z,3.75
2023-08-29T09:45:53.580Z,6.28
2023-08-29T09:48:20.778Z,4.15
2023-08-29T09:50:49.198Z,4.75
2023-08-29T09:53:17.585Z,3.58
2023-08-29T09:55:49.606Z,3.30
2023-08-29T09:58:25.154Z,4.82
2023-08-29T10:00:53.019Z,5.95
2023-08-29T10:03:20.914Z,5.90
2023-08-29T10:05:49.978Z,3.97
2023-08-29T10:08:29.433Z,5.65
2023-08-29T10:11:00.713Z,2.95
2023-08-29T10:13:29.170Z,4.07
2023-08-29T10:15:58.283Z,4.70
2023-08-29T10:18:26.919Z,4.40
2023-08-29T10:20:54.960Z,7.68
2023-08-29T10:23:26.803Z,2.53
2023-08-29T10:25:56.871Z,2.13
2023-08-29T10:28:24.050Z,3.22
2023-08-29T10:30:53.571Z,4.45
2023-08-29T10:33:21.499Z,4.47
2023-08-29T10:35:49.920Z,3.22
2023-08-29T10:38:21.324Z,2.65
2023-08-29T10:41:13.378Z,4.53
2023-08-29T10:43:41.544Z,4.72
2023-08-29T10:46:10.820Z,2.42
2023-08-29T10:51:16.131Z,3.60
2023-08-29T10:54:06.566Z,3.85
2023-08-29T10:56:44.526Z,4.53
2023-08-29T10:59:30.852Z,1.42
2023-08-29T11:02:30.520Z,4.35
2023-08-29T11:05:06.488Z,2.60
2023-08-29T11:07:55.441Z,4.13
2023-08-29T11:10:54.541Z,5.13
2023-08-29T11:13:27.575Z,3.83
2023-08-29T11:15:54.286Z,1.40
2023-08-29T11:18:32.034Z,4.82
2023-08-29T11:20:59.046Z,2.50
2023-08-29T11:23:26.186Z,3.67
2023-08-29T11:25:52.888Z,3.28
2023-08-29T11:28:20.218Z,2.15
2023-08-29T11:30:47.909Z,3.03
2023-08-29T11:33:15.696Z,2.22
2023-08-29T11:35:43.683Z,2.35
2023-08-29T11:38:10.767Z,4.68
2023-08-29T11:41:00.959Z,1.95
2023-08-29T11:43:58.868Z,4.90
2023-08-29T11:46:15.929Z,1.70
2023-08-29T11:48:43.070Z,1.85
2023-08-29T11:51:09.883Z,2.80
2023-08-29T11:53:39.128Z,2.22
2023-08-29T11:56:10.926Z,2.03
2023-08-29T11:58:38.978Z,4.50
2023-08-29T12:01:06.446Z,3.10
2023-08-29T12:03:37.031Z,3.28
2023-08-29T12:06:05.941Z,3.83
2023-08-29T12:08:35.740Z,2.72
2023-08-29T12:11:03.603Z,4.68
2023-08-29T12:13:30.389Z,3.85
2023-08-29T12:15:59.300Z,3.03
2023-08-29T12:18:27.434Z,5.30
2023-08-29T12:21:16.635Z,3.60
2023-08-29T12:23:45.507Z,4.47
2023-08-29T12:28:40.429Z,1.42
2023-08-29T12:31:08.698Z,1.63
2023-08-29T12:33:36.710Z,5.03
2023-08-29T12:36:04.432Z,2.80
2023-08-29T12:38:32.567Z,4.18
2023-08-29T12:40:59.560Z,2.30
2023-08-29T12:43:26.426Z,5.13
2023-08-29T12:45:59.982Z,3.97
2023-08-29T12:48:27.975Z,2.28
2023-08-29T12:50:54.770Z,2.03
2023-08-29T12:53:21.560Z,1.63
2023-08-29T12:55:48.534Z,2.30
2023-08-29T12:58:15.242Z,3.60
2023-08-29T13:00:42.977Z,1.88
2023-08-29T13:03:10.480Z,2.05
2023-08-29T13:05:37.619Z,3.92
2023-08-29T13:08:05.580Z,1.95
2023-08-29T13:10:32.513Z,1.85
2023-08-29T13:12:59.182Z,3.40
2023-08-29T13:15:37.025Z,5.20
2023-08-29T13:18:08.083Z,6.30
2023-08-29T13:20:35.356Z,3.47
2023-08-29T13:23:02.123Z,1.25
2023-08-29T13:25:30.044Z,1.13
2023-08-29T13:27:56.938Z,4.68
2023-08-29T13:30:23.862Z,4.00
2023-08-29T13:32:53.233Z,3.67
2023-08-29T13:35:20.452Z,2.35
2023-08-29T13:37:47.441Z,3.13
2023-08-29T13:40:17.972Z,1.02
2023-08-29T13:42:44.743Z,5.32
2023-08-29T13:45:12.389Z,4.60
2023-08-29T13:47:39.679Z,3.92
2023-08-29T13:50:07.099Z,4.63
2023-08-29T13:52:33.858Z,3.25
2023-08-29T13:55:00.818Z,3.80
2023-08-29T13:57:29.733Z,4.03
2023-08-29T13:59:56.284Z,2.65
2023-08-29T14:02:22.977Z,3.75
2023-08-29T14:04:49.775Z,2.35
2023-08-29T14:07:17.770Z,5.22
2023-08-29T14:09:44.577Z,5.13
2023-08-29T14:12:14.231Z,5.57
2023-08-29T14:14:41.201Z,3.75
2023-08-29T14:17:07.915Z,4.63
2023-08-29T14:19:36.603Z,3.88
2023-08-29T14:22:05.095Z,3.90
2023-08-29T14:24:32.299Z,3.58
2023-08-29T14:26:59.105Z,2.97
2023-08-29T14:29:29.928Z,6.15
2023-08-29T14:31:56.805Z,1.63
2023-08-29T14:34:23.434Z,4.70
2023-08-29T14:36:50.108Z,2.22
2023-08-29T14:39:17.702Z,2.35
2023-08-29T14:41:45.033Z,3.60
2023-08-29T14:44:11.976Z,6.72
2023-08-29T14:46:38.797Z,10.02
2023-08-29T14:49:05.564Z,14.35
2023-08-29T14:51:32.316Z,17.67
2023-08-29T14:54:03.573Z,10.02
2023-08-29T14:56:32.005Z,6.50
2023-08-29T14:59:00.696Z,8.18
2023-08-29T15:01:27.979Z,6.47
2023-08-29T15:03:55.132Z,6.95
2023-08-29T15:06:21.947Z,8.82
2023-08-29T15:08:48.644Z,6.03
2023-08-29T15:11:17.595Z,7.10
2023-08-29T15:13:44.265Z,8.45
2023-08-29T15:16:11.113Z,7.13
2023-08-29T15:18:37.866Z,8.80
2023-08-29T15:21:06.853Z,6.28
2023-08-29T15:23:35.183Z,9.75
2023-08-29T15:26:05.477Z,8.40
2023-08-29T15:28:32.194Z,5.38
2023-08-29T15:31:02.055Z,10.70
2023-08-29T15:33:30.083Z,8.98
2023-08-29T15:35:58.135Z,9.93
2023-08-29T15:38:25.538Z,10.85
2023-08-29T15:40:55.935Z,7.78
2023-08-29T15:43:25.758Z,6.65
2023-08-29T15:45:53.086Z,6.78
2023-08-29T15:48:20.089Z,8.25
2023-08-29T15:50:47.599Z,9.80
2023-08-29T15:53:15.251Z,8.98
2023-08-29T15:55:43.026Z,6.65
2023-08-29T15:58:10.064Z,6.07
2023-08-29T16:00:38.255Z,7.18
2023-08-29T16:03:10.658Z,5.53
2023-08-29T16:05:37.650Z,5.45
2023-08-29T16:08:04.982Z,7.75
2023-08-29T16:10:31.929Z,7.28
2023-08-29T16:12:58.575Z,6.70
2023-08-29T16:15:25.234Z,6.35
2023-08-29T16:17:51.941Z,7.15
2023-08-29T16:20:18.708Z,12.18
2023-08-29T16:22:46.325Z,9.10
2023-08-29T16:25:13.149Z,5.72
2023-08-29T16:27:39.988Z,7.95
2023-08-29T16:30:08.515Z,6.68
2023-08-29T16:32:36.448Z,7.40
2023-08-29T16:35:03.429Z,6.22
2023-08-29T16:37:30.480Z,7.95
2023-08-29T16:39:58.887Z,6.75
2023-08-29T16:42:25.698Z,8.43
2023-08-29T16:44:52.675Z,9.25
2023-08-29T16:47:19.470Z,6.60
2023-08-29T16:49:46.118Z,4.68
2023-08-29T16:52:12.883Z,7.63
2023-08-29T16:54:39.505Z,3.92
2023-08-29T16:57:06.520Z,3.83
2023-08-29T16:59:57.547Z,5.70
2023-08-29T17:02:25.546Z,4.43
2023-08-29T17:04:53.635Z,4.72
2023-08-29T17:07:20.581Z,4.95
2023-08-29T17:09:47.208Z,4.38
2023-08-29T17:12:21.647Z,4.90
2023-08-29T17:14:50.185Z,5.97
2023-08-29T17:17:17.827Z,6.20
2023-08-29T17:19:45.163Z,5.18
2023-08-29T17:22:11.965Z,3.53
2023-08-29T17:24:39.883Z,11.20
2023-08-29T17:27:10.523Z,8.93
2023-08-29T17:29:38.162Z,6.53
2023-08-29T17:32:05.453Z,10.05
2023-08-29T17:34:32.311Z,7.57
2023-08-29T17:37:01.903Z,5.90
2023-08-29T17:39:29.352Z,5.03
2023-08-29T17:41:56.473Z,5.60
2023-08-29T17:44:23.513Z,5.88
2023-08-29T17:46:50.451Z,6.85
2023-08-29T17:49:19.324Z,5.70
2023-08-29T17:51:46.311Z,4.93
2023-08-29T17:54:15.788Z,6.90
2023-08-29T17:59:08.948Z,6.30
2023-08-29T18:01:35.657Z,7.50
2023-08-29T18:04:02.271Z,9.10
2023-08-29T18:06:28.838Z,6.78
2023-08-29T18:08:56.399Z,8.00
2023-08-29T18:11:23.093Z,9.38
2023-08-29T18:13:49.895Z,5.18
2023-08-29T18:16:17.022Z,4.75
2023-08-29T18:18:43.785Z,5.25
2023-08-29T18:21:11.918Z,7.05
2023-08-29T18:23:38.804Z,9.63
2023-08-29T18:26:06.977Z,6.45
2023-08-29T18:28:34.679Z,6.97
2023-08-29T18:31:04.074Z,5.95
2023-08-29T18:36:04.022Z,5.93
2023-08-29T18:38:31.352Z,9.48
2023-08-29T18:40:58.885Z,8.15
2023-08-29T18:43:25.687Z,9.70
2023-08-29T18:45:52.384Z,11.88
2023-08-29T18:48:20.376Z,14.95
2023-08-29T18:50:47.272Z,13.85
2023-08-29T18:53:14.109Z,10.93
2023-08-29T18:55:45.068Z,11.15
2023-08-29T18:58:12.616Z,9.23
2023-08-29T19:00:39.407Z,8.93
2023-08-29T19:03:07.321Z,8.20
2023-08-29T19:05:36.464Z,9.07
2023-08-29T19:08:03.522Z,8.70
2023-08-29T19:10:30.806Z,7.60
2023-08-29T19:12:58.030Z,9.73
2023-08-29T19:15:24.995Z,8.20
2023-08-29T19:17:52.091Z,7.97
2023-08-29T19:20:18.865Z,6.00
2023-08-29T19:22:45.621Z,6.75
2023-08-29T19:25:12.962Z,7.55
2023-08-29T19:27:39.574Z,5.53
2023-08-29T19:30:09.100Z,5.47
2023-08-29T19:32:36.309Z,6.18
2023-08-29T19:35:05.230Z,7.05
2023-08-29T19:37:35.371Z,10.40
2023-08-29T19:40:02.116Z,6.13
2023-08-29T19:42:28.641Z,7.88
2023-08-29T19:44:55.295Z,12.13
2023-08-29T19:47:25.785Z,6.60
2023-08-29T19:49:52.436Z,7.65
2023-08-29T19:52:19.156Z,10.35
2023-08-29T19:54:45.909Z,13.25
2023-08-29T19:57:12.680Z,9.82
2023-08-29T19:59:39.363Z,8.07
2023-08-29T20:02:06.139Z,6.30
2023-08-29T20:04:32.865Z,7.10
2023-08-29T20:06:59.459Z,6.45
2023-08-29T20:09:26.448Z,8.10
2023-08-29T20:11:54.841Z,9.15
2023-08-29T20:14:21.496Z,9.52
2023-08-29T20:16:48.191Z,7.85
2023-08-29T20:19:15.365Z,6.45
2023-08-29T20:21:42.197Z,6.55
2023-08-29T20:24:08.850Z,10.30
2023-08-29T20:26:35.448Z,7.30
2023-08-29T20:29:02.894Z,7.68
2023-08-29T20:31:39.089Z,9.45
2023-08-29T20:34:06.456Z,6.57
2023-08-29T20:36:33.099Z,7.47
2023-08-29T20:38:59.797Z,6.82
2023-08-29T20:41:26.560Z,6.75
2023-08-29T20:43:53.173Z,8.50
2023-08-29T20:46:20.384Z,7.10
2023-08-29T20:48:51.882Z,7.35
2023-08-29T20:51:20.634Z,11.20
2023-08-29T20:53:47.268Z,8.43
2023-08-29T20:56:13.909Z,7.57
2023-08-29T20:58:40.717Z,8.50
2023-08-29T21:01:07.468Z,9.80
2023-08-29T21:03:34.372Z,7.85
2023-08-29T21:06:01.157Z,9.75
2023-08-29T21:08:28.347Z,10.23
2023-08-29T21:10:55.415Z,9.65
2023-08-29T21:13:23.376Z,12.60
2023-08-29T21:15:50.218Z,11.07
2023-08-29T21:18:18.486Z,8.98
2023-08-29T21:20:55.693Z,8.52
2023-08-29T21:23:23.171Z,9.38
2023-08-29T21:25:50.979Z,11.27
2023-08-29T21:28:20.306Z,10.07
2023-08-29T21:30:47.586Z,11.75
2023-08-29T21:33:14.313Z,10.40
2023-08-29T21:35:42.278Z,10.82
2023-08-29T21:38:10.224Z,11.45
2023-08-29T21:40:38.252Z,12.20
2023-08-29T21:43:10.567Z,11.00
2023-08-29T21:45:38.650Z,8.13
2023-08-29T21:48:07.407Z,11.32
2023-08-29T21:50:45.565Z,9.85
2023-08-29T21:53:13.175Z,7.95
2023-08-29T21:55:41.276Z,9.05
2023-08-29T21:58:11.750Z,9.32
2023-08-29T22:00:38.892Z,8.57
2023-08-29T22:03:07.061Z,11.27
2023-08-29T22:05:34.111Z,10.57
2023-08-29T22:08:01.649Z,11.93
2023-08-29T22:10:28.295Z,11.88
2023-08-29T22:12:55.024Z,14.10
2023-08-29T22:15:21.714Z,12.50
2023-08-29T22:17:48.439Z,13.70
2023-08-29T22:20:15.770Z,15.82
2023-08-29T22:22:42.882Z,10.40
2023-08-29T22:25:13.398Z,9.90
2023-08-29T22:27:40.020Z,12.68
2023-08-29T22:30:18.937Z,10.32
2023-08-29T22:32:45.728Z,11.73
2023-08-29T22:35:12.530Z,11.85
2023-08-29T22:37:39.176Z,12.90
2023-08-29T22:40:06.734Z,12.35
2023-08-29T22:42:33.415Z,11.50
2023-08-29T22:45:00.046Z,10.93
2023-08-29T22:47:27.014Z,11.10
2023-08-29T22:49:53.805Z,10.48
2023-08-29T22:52:20.412Z,11.35
2023-08-29T22:54:47.095Z,9.77
2023-08-29T22:57:13.830Z,9.43
2023-08-29T22:59:40.520Z,11.57
2023-08-29T23:02:07.133Z,13.85
2023-08-29T23:04:34.890Z,14.18
2023-08-29T23:07:08.683Z,16.63
2023-08-29T23:09:37.123Z,12.25
2023-08-29T23:12:05.172Z,14.15
2023-08-29T23:14:32.102Z,14.48
2023-08-29T23:16:58.695Z,16.20
2023-08-29T23:19:26.102Z,18.23
2023-08-29T23:21:53.882Z,16.27
2023-08-29T23:24:21.362Z,15.25
2023-08-29T23:26:49.117Z,13.50
2023-08-29T23:29:16.147Z,14.10
2023-08-29T23:31:42.940Z,18.02
2023-08-29T23:34:09.553Z,15.23
2023-08-29T23:36:36.170Z,13.77
2023-08-29T23:39:03.915Z,17.17
2023-08-29T23:41:30.574Z,17.23
2023-08-29T23:43:57.224Z,16.48
2023-08-29T23:46:24.011Z,16.48
2023-08-29T23:48:50.643Z,16.13
2023-08-29T23:51:17.560Z,16.50
2023-08-29T23:53:44.253Z,22.55
2023-08-29T23:56:10.893Z,17.58
2023-08-29T23:58:37.514Z,16.25
